Augusta, Georgia
Current Conditions -  °F | °C
As of 12:53 PM on Thursday 30 Oct 2014 (Local Time) from KDNL Reporting Station
Clear Clear  
Wind Chill: 69°   Ceiling: Unl
Heat Index: 69°   Visibility: 10mi
Dew Point: 42°   Wind: 6mph
Humidity: 38%   Direction: 350°N
Pressure: 30.03"   Gusts: NA
Location:  33.48°N, 81.97°W
Report Text: KDNL 301653Z AUTO 35005KT 10SM CLR 21/06 A3003 RMK AO2 SLP164 T02060056
Loading
Personal Weather Stations






























Interactive Weather Map
Tropical Storm Tracking
New forecast layout! Learn more

10-Day Weather Forecast

Advertisements
Track Severe Weather on mobile